sensor_id;sensor_type;location;lat;lon;timestamp;temperature;humidity
23471;DHT22;11908;50.806;4.424;2023-01-05T00:01:51;11.20;99.90
23471;DHT22;11908;50.806;4.424;2023-01-05T00:04:17;11.10;99.90
23471;DHT22;11908;50.806;4.424;2023-01-05T00:06:43;11.10;99.90
23471;DHT22;11908;50.806;4.424;2023-01-05T00:09:14;11.10;99.90
23471;DHT22;11908;50.806;4.424;2023-01-05T00:11:40;11.20;99.90
23471;DHT22;11908;50.806;4.424;2023-01-05T00:14:27;11.10;99.90
23471;DHT22;11908;50.806;4.424;2023-01-05T00:17:14;11.10;99.90
23471;DHT22;11908;50.806;4.424;2023-01-05T00:19:59;11.10;99.90
23471;DHT22;11908;50.806;4.424;2023-01-05T00:22:48;11.10;99.90
23471;DHT22;11908;50.806;4.424;2023-01-05T00:25:17;11.20;99.90
23471;DHT22;11908;50.806;4.424;2023-01-05T00:27:45;11.10;99.90
23471;DHT22;11908;50.806;4.424;2023-01-05T00:30:15;11.10;99.90
23471;DHT22;11908;50.806;4.424;2023-01-05T00:32:42;11.00;99.90
23471;DHT22;11908;50.806;4.424;2023-01-05T00:35:09;11.10;99.90
23471;DHT22;11908;50.806;4.424;2023-01-05T00:37:35;11.10;99.90
23471;DHT22;11908;50.806;4.424;2023-01-05T00:40:04;11.10;99.90
23471;DHT22;11908;50.806;4.424;2023-01-05T00:42:30;11.10;99.90
23471;DHT22;11908;50.806;4.424;2023-01-05T00:44:56;11.10;99.90
23471;DHT22;11908;50.806;4.424;2023-01-05T00:47:22;11.10;99.90
23471;DHT22;11908;50.806;4.424;2023-01-05T00:49:47;11.20;99.90
23471;DHT22;11908;50.806;4.424;2023-01-05T00:52:13;11.20;99.90
23471;DHT22;11908;50.806;4.424;2023-01-05T00:54:39;11.10;99.90
23471;DHT22;11908;50.806;4.424;2023-01-05T00:57:05;11.10;99.90
23471;DHT22;11908;50.806;4.424;2023-01-05T00:59:32;11.10;99.90
23471;DHT22;11908;50.806;4.424;2023-01-05T01:01:58;11.10;99.90
23471;DHT22;11908;50.806;4.424;2023-01-05T01:04:23;11.00;99.90
23471;DHT22;11908;50.806;4.424;2023-01-05T01:06:49;11.10;99.90
23471;DHT22;11908;50.806;4.424;2023-01-05T01:09:15;11.10;99.90
23471;DHT22;11908;50.806;4.424;2023-01-05T01:11:41;11.10;99.90
23471;DHT22;11908;50.806;4.424;2023-01-05T01:14:09;11.00;99.90
23471;DHT22;11908;50.806;4.424;2023-01-05T01:16:35;11.10;99.90
23471;DHT22;11908;50.806;4.424;2023-01-05T01:19:01;11.10;99.90
23471;DHT22;11908;50.806;4.424;2023-01-05T01:21:26;11.10;99.90
23471;DHT22;11908;50.806;4.424;2023-01-05T01:23:52;11.10;99.90
23471;DHT22;11908;50.806;4.424;2023-01-05T01:26:18;11.10;99.90
23471;DHT22;11908;50.806;4.424;2023-01-05T01:28:46;11.10;99.90
23471;DHT22;11908;50.806;4.424;2023-01-05T01:31:12;11.00;99.90
23471;DHT22;11908;50.806;4.424;2023-01-05T01:33:38;11.00;99.90
23471;DHT22;11908;50.806;4.424;2023-01-05T01:36:05;11.00;99.90
23471;DHT22;11908;50.806;4.424;2023-01-05T01:38:32;11.00;99.90
23471;DHT22;11908;50.806;4.424;2023-01-05T01:40:58;11.00;99.90
23471;DHT22;11908;50.806;4.424;2023-01-05T01:46:06;11.00;99.90
23471;DHT22;11908;50.806;4.424;2023-01-05T01:48:33;11.00;99.90
23471;DHT22;11908;50.806;4.424;2023-01-05T01:51:02;11.10;99.90
23471;DHT22;11908;50.806;4.424;2023-01-05T01:53:37;11.10;99.90
23471;DHT22;11908;50.806;4.424;2023-01-05T01:56:06;11.10;99.90
23471;DHT22;11908;50.806;4.424;2023-01-05T01:58:33;11.10;99.90
23471;DHT22;11908;50.806;4.424;2023-01-05T02:00:59;11.10;99.90
23471;DHT22;11908;50.806;4.424;2023-01-05T02:03:26;11.10;99.90
23471;DHT22;11908;50.806;4.424;2023-01-05T02:05:53;11.10;99.90
23471;DHT22;11908;50.806;4.424;2023-01-05T02:08:18;11.10;99.90
23471;DHT22;11908;50.806;4.424;2023-01-05T02:16:18;11.10;99.90
23471;DHT22;11908;50.806;4.424;2023-01-05T02:21:45;11.10;99.90
23471;DHT22;11908;50.806;4.424;2023-01-05T02:27:13;11.20;99.90
23471;DHT22;11908;50.806;4.424;2023-01-05T02:38:06;11.10;99.90
23471;DHT22;11908;50.806;4.424;2023-01-05T02:40:40;11.20;99.90
23471;DHT22;11908;50.806;4.424;2023-01-05T02:43:08;11.10;99.90
23471;DHT22;11908;50.806;4.424;2023-01-05T02:45:34;11.10;99.90
23471;DHT22;11908;50.806;4.424;2023-01-05T02:48:00;11.10;99.90
23471;DHT22;11908;50.806;4.424;2023-01-05T02:50:30;11.20;99.90
23471;DHT22;11908;50.806;4.424;2023-01-05T02:55:39;11.20;99.90
23471;DHT22;11908;50.806;4.424;2023-01-05T02:58:25;11.10;99.90
23471;DHT22;11908;50.806;4.424;2023-01-05T03:00:56;11.10;99.90
23471;DHT22;11908;50.806;4.424;2023-01-05T03:03:29;11.20;99.90
23471;DHT22;11908;50.806;4.424;2023-01-05T03:06:17;11.20;99.90
23471;DHT22;11908;50.806;4.424;2023-01-05T03:08:55;11.20;99.90
23471;DHT22;11908;50.806;4.424;2023-01-05T03:11:26;11.20;99.90
23471;DHT22;11908;50.806;4.424;2023-01-05T03:14:53;11.20;99.90
23471;DHT22;11908;50.806;4.424;2023-01-05T03:17:27;11.10;99.90
23471;DHT22;11908;50.806;4.424;2023-01-05T03:19:54;11.20;99.90
23471;DHT22;11908;50.806;4.424;2023-01-05T03:22:29;11.20;99.90
23471;DHT22;11908;50.806;4.424;2023-01-05T03:25:17;11.30;99.90
23471;DHT22;11908;50.806;4.424;2023-01-05T03:28:04;11.30;99.90
23471;DHT22;11908;50.806;4.424;2023-01-05T03:31:00;11.30;99.90
23471;DHT22;11908;50.806;4.424;2023-01-05T03:34:11;11.30;99.90
23471;DHT22;11908;50.806;4.424;2023-01-05T03:37:09;11.20;99.90
23471;DHT22;11908;50.806;4.424;2023-01-05T03:39:39;11.20;99.90
23471;DHT22;11908;50.806;4.424;2023-01-05T03:42:08;11.20;99.90
23471;DHT22;11908;50.806;4.424;2023-01-05T03:44:38;11.30;99.90
23471;DHT22;11908;50.806;4.424;2023-01-05T03:47:04;11.20;99.90
23471;DHT22;11908;50.806;4.424;2023-01-05T03:49:30;11.20;99.90
23471;DHT22;11908;50.806;4.424;2023-01-05T03:51:56;11.20;99.90
23471;DHT22;11908;50.806;4.424;2023-01-05T03:54:22;11.30;99.90
23471;DHT22;11908;50.806;4.424;2023-01-05T03:56:48;11.30;99.90
23471;DHT22;11908;50.806;4.424;2023-01-05T03:59:13;11.30;99.90
23471;DHT22;11908;50.806;4.424;2023-01-05T04:01:39;11.30;99.90
23471;DHT22;11908;50.806;4.424;2023-01-05T04:04:05;11.30;99.90
23471;DHT22;11908;50.806;4.424;2023-01-05T04:06:30;11.30;99.90
23471;DHT22;11908;50.806;4.424;2023-01-05T04:08:56;11.40;99.90
23471;DHT22;11908;50.806;4.424;2023-01-05T04:11:23;11.40;99.90
23471;DHT22;11908;50.806;4.424;2023-01-05T04:13:49;11.30;99.90
23471;DHT22;11908;50.806;4.424;2023-01-05T04:16:14;11.30;99.90
23471;DHT22;11908;50.806;4.424;2023-01-05T04:18:40;11.30;99.90
23471;DHT22;11908;50.806;4.424;2023-01-05T04:21:06;11.30;99.90
23471;DHT22;11908;50.806;4.424;2023-01-05T04:23:32;11.30;99.90
23471;DHT22;11908;50.806;4.424;2023-01-05T04:25:58;11.30;99.90
23471;DHT22;11908;50.806;4.424;2023-01-05T04:28:24;11.30;99.90
23471;DHT22;11908;50.806;4.424;2023-01-05T04:30:52;11.30;99.90
23471;DHT22;11908;50.806;4.424;2023-01-05T04:33:18;11.30;99.90
23471;DHT22;11908;50.806;4.424;2023-01-05T04:35:45;11.30;99.90
23471;DHT22;11908;50.806;4.424;2023-01-05T04:38:11;11.30;99.90
23471;DHT22;11908;50.806;4.424;2023-01-05T04:40:37;11.40;99.90
23471;DHT22;11908;50.806;4.424;2023-01-05T04:43:03;11.30;99.90
23471;DHT22;11908;50.806;4.424;2023-01-05T04:45:28;11.30;99.90
23471;DHT22;11908;50.806;4.424;2023-01-05T04:47:54;11.30;99.90
23471;DHT22;11908;50.806;4.424;2023-01-05T04:50:20;11.30;99.90
23471;DHT22;11908;50.806;4.424;2023-01-05T04:52:46;11.30;99.90
23471;DHT22;11908;50.806;4.424;2023-01-05T04:55:11;11.40;99.90
23471;DHT22;11908;50.806;4.424;2023-01-05T04:57:37;11.30;99.90
23471;DHT22;11908;50.806;4.424;2023-01-05T05:00:03;11.40;99.90
23471;DHT22;11908;50.806;4.424;2023-01-05T05:02:30;11.30;99.90
23471;DHT22;11908;50.806;4.424;2023-01-05T05:04:56;11.20;99.90
23471;DHT22;11908;50.806;4.424;2023-01-05T05:07:22;11.20;99.90
23471;DHT22;11908;50.806;4.424;2023-01-05T05:09:47;11.20;99.90
23471;DHT22;11908;50.806;4.424;2023-01-05T05:12:13;11.20;99.90
23471;DHT22;11908;50.806;4.424;2023-01-05T05:14:40;11.10;99.90
23471;DHT22;11908;50.806;4.424;2023-01-05T05:17:05;11.10;99.90
23471;DHT22;11908;50.806;4.424;2023-01-05T05:19:31;11.00;99.90
23471;DHT22;11908;50.806;4.424;2023-01-05T05:21:57;11.00;99.90
23471;DHT22;11908;50.806;4.424;2023-01-05T05:24:23;11.10;99.90
23471;DHT22;11908;50.806;4.424;2023-01-05T05:26:48;11.10;99.90
23471;DHT22;11908;50.806;4.424;2023-01-05T05:29:14;11.10;99.90
23471;DHT22;11908;50.806;4.424;2023-01-05T05:31:40;11.10;99.90
23471;DHT22;11908;50.806;4.424;2023-01-05T05:34:05;11.10;99.90
23471;DHT22;11908;50.806;4.424;2023-01-05T05:36:31;11.10;99.90
23471;DHT22;11908;50.806;4.424;2023-01-05T05:38:57;11.10;99.90
23471;DHT22;11908;50.806;4.424;2023-01-05T05:41:23;11.00;99.90
23471;DHT22;11908;50.806;4.424;2023-01-05T05:43:49;11.00;99.90
23471;DHT22;11908;50.806;4.424;2023-01-05T05:46:15;11.00;99.90
23471;DHT22;11908;50.806;4.424;2023-01-05T05:48:41;11.00;99.90
23471;DHT22;11908;50.806;4.424;2023-01-05T05:51:06;10.90;99.90
23471;DHT22;11908;50.806;4.424;2023-01-05T05:53:32;11.00;99.90
23471;DHT22;11908;50.806;4.424;2023-01-05T05:55:58;11.10;99.90
23471;DHT22;11908;50.806;4.424;2023-01-05T05:58:24;11.10;99.90
23471;DHT22;11908;50.806;4.424;2023-01-05T06:00:49;11.10;99.90
23471;DHT22;11908;50.806;4.424;2023-01-05T06:03:15;11.10;99.90
23471;DHT22;11908;50.806;4.424;2023-01-05T06:05:41;11.10;99.90
23471;DHT22;11908;50.806;4.424;2023-01-05T06:08:07;11.00;99.90
23471;DHT22;11908;50.806;4.424;2023-01-05T06:10:33;11.10;99.90
23471;DHT22;11908;50.806;4.424;2023-01-05T06:12:58;11.10;99.90
23471;DHT22;11908;50.806;4.424;2023-01-05T06:15:24;11.10;99.90
23471;DHT22;11908;50.806;4.424;2023-01-05T06:17:50;11.00;99.90
23471;DHT22;11908;50.806;4.424;2023-01-05T06:20:16;11.00;99.90
23471;DHT22;11908;50.806;4.424;2023-01-05T06:22:42;10.90;99.90
23471;DHT22;11908;50.806;4.424;2023-01-05T06:25:08;11.00;99.90
23471;DHT22;11908;50.806;4.424;2023-01-05T06:27:34;11.00;99.90
23471;DHT22;11908;50.806;4.424;2023-01-05T06:30:00;11.00;99.90
23471;DHT22;11908;50.806;4.424;2023-01-05T06:32:26;11.00;99.90
23471;DHT22;11908;50.806;4.424;2023-01-05T06:34:52;11.00;99.90
23471;DHT22;11908;50.806;4.424;2023-01-05T06:37:18;11.00;99.90
23471;DHT22;11908;50.806;4.424;2023-01-05T06:39:43;11.10;99.90
23471;DHT22;11908;50.806;4.424;2023-01-05T06:42:09;11.00;99.90
23471;DHT22;11908;50.806;4.424;2023-01-05T06:44:35;11.00;99.90
23471;DHT22;11908;50.806;4.424;2023-01-05T06:47:01;10.90;99.90
23471;DHT22;11908;50.806;4.424;2023-01-05T06:49:27;10.90;99.90
23471;DHT22;11908;50.806;4.424;2023-01-05T06:51:52;10.90;99.90
23471;DHT22;11908;50.806;4.424;2023-01-05T06:54:18;11.00;99.90
23471;DHT22;11908;50.806;4.424;2023-01-05T06:56:44;11.00;99.90
23471;DHT22;11908;50.806;4.424;2023-01-05T06:59:10;10.90;99.90
23471;DHT22;11908;50.806;4.424;2023-01-05T07:01:37;10.90;99.90
23471;DHT22;11908;50.806;4.424;2023-01-05T07:04:02;10.80;99.90
23471;DHT22;11908;50.806;4.424;2023-01-05T07:06:28;10.80;99.90
23471;DHT22;11908;50.806;4.424;2023-01-05T07:08:54;10.80;99.90
23471;DHT22;11908;50.806;4.424;2023-01-05T07:11:19;11.00;99.90
23471;DHT22;11908;50.806;4.424;2023-01-05T07:13:48;11.00;99.90
23471;DHT22;11908;50.806;4.424;2023-01-05T07:16:15;10.90;99.90
23471;DHT22;11908;50.806;4.424;2023-01-05T07:18:41;10.90;99.90
23471;DHT22;11908;50.806;4.424;2023-01-05T07:21:07;10.80;99.90
23471;DHT22;11908;50.806;4.424;2023-01-05T07:23:33;10.80;99.90
23471;DHT22;11908;50.806;4.424;2023-01-05T07:26:02;10.80;99.90
23471;DHT22;11908;50.806;4.424;2023-01-05T07:28:28;10.80;99.90
23471;DHT22;11908;50.806;4.424;2023-01-05T07:30:54;10.80;99.90
23471;DHT22;11908;50.806;4.424;2023-01-05T07:33:20;10.90;99.90
23471;DHT22;11908;50.806;4.424;2023-01-05T07:35:46;10.80;99.90
23471;DHT22;11908;50.806;4.424;2023-01-05T07:38:11;10.90;99.90
23471;DHT22;11908;50.806;4.424;2023-01-05T07:40:37;10.90;99.90
23471;DHT22;11908;50.806;4.424;2023-01-05T07:43:03;10.80;99.90
23471;DHT22;11908;50.806;4.424;2023-01-05T07:45:29;10.80;99.90
23471;DHT22;11908;50.806;4.424;2023-01-05T07:47:55;10.80;99.90
23471;DHT22;11908;50.806;4.424;2023-01-05T07:50:21;10.80;99.90
23471;DHT22;11908;50.806;4.424;2023-01-05T07:52:47;10.70;99.90
23471;DHT22;11908;50.806;4.424;2023-01-05T07:55:13;10.70;99.90
23471;DHT22;11908;50.806;4.424;2023-01-05T07:57:38;10.70;99.90
23471;DHT22;11908;50.806;4.424;2023-01-05T08:00:05;10.80;99.90
23471;DHT22;11908;50.806;4.424;2023-01-05T08:02:31;10.80;99.90
23471;DHT22;11908;50.806;4.424;2023-01-05T08:04:57;10.80;99.90
23471;DHT22;11908;50.806;4.424;2023-01-05T08:07:23;10.90;99.90
23471;DHT22;11908;50.806;4.424;2023-01-05T08:09:49;11.00;99.90
23471;DHT22;11908;50.806;4.424;2023-01-05T08:12:33;10.90;99.90
23471;DHT22;11908;50.806;4.424;2023-01-05T08:15:19;10.90;99.90
23471;DHT22;11908;50.806;4.424;2023-01-05T08:17:44;11.00;99.90
23471;DHT22;11908;50.806;4.424;2023-01-05T08:20:10;11.00;99.90
23471;DHT22;11908;50.806;4.424;2023-01-05T08:22:36;10.90;99.90
23471;DHT22;11908;50.806;4.424;2023-01-05T08:25:02;10.90;99.90
23471;DHT22;11908;50.806;4.424;2023-01-05T08:27:27;10.90;99.90
23471;DHT22;11908;50.806;4.424;2023-01-05T08:29:53;11.00;99.90
23471;DHT22;11908;50.806;4.424;2023-01-05T08:32:19;11.00;99.90
23471;DHT22;11908;50.806;4.424;2023-01-05T08:34:44;11.00;99.90
23471;DHT22;11908;50.806;4.424;2023-01-05T08:37:10;11.00;99.90
23471;DHT22;11908;50.806;4.424;2023-01-05T08:39:36;11.10;99.90
23471;DHT22;11908;50.806;4.424;2023-01-05T08:42:01;11.10;99.90
23471;DHT22;11908;50.806;4.424;2023-01-05T08:44:28;11.20;99.90
23471;DHT22;11908;50.806;4.424;2023-01-05T08:46:54;11.20;99.90
23471;DHT22;11908;50.806;4.424;2023-01-05T08:49:20;11.40;99.90
23471;DHT22;11908;50.806;4.424;2023-01-05T08:51:45;11.40;99.90
23471;DHT22;11908;50.806;4.424;2023-01-05T08:54:11;11.60;99.90
23471;DHT22;11908;50.806;4.424;2023-01-05T08:56:37;11.60;99.90
23471;DHT22;11908;50.806;4.424;2023-01-05T08:59:03;11.60;99.90
23471;DHT22;11908;50.806;4.424;2023-01-05T09:01:28;11.60;99.90
23471;DHT22;11908;50.806;4.424;2023-01-05T09:03:55;11.60;99.90
23471;DHT22;11908;50.806;4.424;2023-01-05T09:06:21;11.70;99.90
23471;DHT22;11908;50.806;4.424;2023-01-05T09:08:47;11.60;99.90
23471;DHT22;11908;50.806;4.424;2023-01-05T09:11:14;11.60;99.90
23471;DHT22;11908;50.806;4.424;2023-01-05T09:13:43;11.60;99.90
23471;DHT22;11908;50.806;4.424;2023-01-05T09:16:14;11.50;99.90
23471;DHT22;11908;50.806;4.424;2023-01-05T09:18:40;11.50;99.90
23471;DHT22;11908;50.806;4.424;2023-01-05T09:21:07;11.60;99.90
23471;DHT22;11908;50.806;4.424;2023-01-05T09:23:34;11.60;99.90
23471;DHT22;11908;50.806;4.424;2023-01-05T09:26:02;11.50;99.90
23471;DHT22;11908;50.806;4.424;2023-01-05T09:28:28;11.60;99.90
23471;DHT22;11908;50.806;4.424;2023-01-05T09:30:54;11.70;99.90
23471;DHT22;11908;50.806;4.424;2023-01-05T09:33:19;11.80;99.90
23471;DHT22;11908;50.806;4.424;2023-01-05T09:35:53;11.90;99.90
23471;DHT22;11908;50.806;4.424;2023-01-05T09:38:19;12.00;99.90
23471;DHT22;11908;50.806;4.424;2023-01-05T09:40:45;11.90;99.90
23471;DHT22;11908;50.806;4.424;2023-01-05T09:43:30;11.90;99.90
23471;DHT22;11908;50.806;4.424;2023-01-05T09:45:57;11.80;99.90
23471;DHT22;11908;50.806;4.424;2023-01-05T09:48:24;11.90;99.90
23471;DHT22;11908;50.806;4.424;2023-01-05T09:50:50;12.00;99.90
23471;DHT22;11908;50.806;4.424;2023-01-05T09:53:20;12.00;99.90
23471;DHT22;11908;50.806;4.424;2023-01-05T09:55:48;12.10;99.90
23471;DHT22;11908;50.806;4.424;2023-01-05T09:58:17;12.10;99.90
23471;DHT22;11908;50.806;4.424;2023-01-05T10:00:52;12.10;99.90
23471;DHT22;11908;50.806;4.424;2023-01-05T10:03:23;12.20;99.90
23471;DHT22;11908;50.806;4.424;2023-01-05T10:05:50;12.40;99.90
23471;DHT22;11908;50.806;4.424;2023-01-05T10:11:02;12.60;99.90
23471;DHT22;11908;50.806;4.424;2023-01-05T10:14:19;12.70;99.90
23471;DHT22;11908;50.806;4.424;2023-01-05T10:16:43;12.80;99.90
23471;DHT22;11908;50.806;4.424;2023-01-05T10:19:14;12.90;99.90
23471;DHT22;11908;50.806;4.424;2023-01-05T10:21:53;13.00;99.90
23471;DHT22;11908;50.806;4.424;2023-01-05T10:27:03;13.10;99.90
23471;DHT22;11908;50.806;4.424;2023-01-05T10:29:39;13.10;99.90
23471;DHT22;11908;50.806;4.424;2023-01-05T10:32:25;13.00;99.90
23471;DHT22;11908;50.806;4.424;2023-01-05T10:37:55;12.90;99.90
23471;DHT22;11908;50.806;4.424;2023-01-05T10:45:56;13.10;99.90
23471;DHT22;11908;50.806;4.424;2023-01-05T10:48:27;13.00;99.90
23471;DHT22;11908;50.806;4.424;2023-01-05T10:50:55;13.00;99.90
23471;DHT22;11908;50.806;4.424;2023-01-05T10:53:24;13.00;99.90
23471;DHT22;11908;50.806;4.424;2023-01-05T11:01:13;13.50;99.90
23471;DHT22;11908;50.806;4.424;2023-01-05T11:03:44;13.20;99.90
23471;DHT22;11908;50.806;4.424;2023-01-05T11:06:19;13.30;99.90
23471;DHT22;11908;50.806;4.424;2023-01-05T11:08:46;13.20;99.90
23471;DHT22;11908;50.806;4.424;2023-01-05T11:11:22;13.30;99.90
23471;DHT22;11908;50.806;4.424;2023-01-05T11:13:49;13.40;99.90
23471;DHT22;11908;50.806;4.424;2023-01-05T11:16:19;13.30;99.90
23471;DHT22;11908;50.806;4.424;2023-01-05T11:18:56;13.20;99.90
23471;DHT22;11908;50.806;4.424;2023-01-05T11:21:25;13.50;99.90
23471;DHT22;11908;50.806;4.424;2023-01-05T11:23:57;13.60;99.90
23471;DHT22;11908;50.806;4.424;2023-01-05T11:26:28;13.50;99.90
23471;DHT22;11908;50.806;4.424;2023-01-05T11:34:34;13.10;99.90
23471;DHT22;11908;50.806;4.424;2023-01-05T11:39:41;13.30;99.90
23471;DHT22;11908;50.806;4.424;2023-01-05T11:44:57;13.00;99.90
23471;DHT22;11908;50.806;4.424;2023-01-05T11:50:00;13.20;99.90
23471;DHT22;11908;50.806;4.424;2023-01-05T11:52:38;13.10;99.90
23471;DHT22;11908;50.806;4.424;2023-01-05T11:57:46;13.20;99.90
23471;DHT22;11908;50.806;4.424;2023-01-05T12:03:23;13.40;99.90
23471;DHT22;11908;50.806;4.424;2023-01-05T12:05:57;13.40;99.90
23471;DHT22;11908;50.806;4.424;2023-01-05T12:08:46;13.30;99.90
23471;DHT22;11908;50.806;4.424;2023-01-05T12:11:20;13.40;99.90
23471;DHT22;11908;50.806;4.424;2023-01-05T12:27:34;13.00;99.90
23471;DHT22;11908;50.806;4.424;2023-01-05T12:35:24;13.30;99.90
23471;DHT22;11908;50.806;4.424;2023-01-05T12:46:55;13.50;99.90
23471;DHT22;11908;50.806;4.424;2023-01-05T12:49:30;13.60;99.90
23471;DHT22;11908;50.806;4.424;2023-01-05T12:55:21;13.40;99.90
23471;DHT22;11908;50.806;4.424;2023-01-05T12:58:09;13.30;99.90
23471;DHT22;11908;50.806;4.424;2023-01-05T13:00:36;13.30;99.90
23471;DHT22;11908;50.806;4.424;2023-01-05T13:13:37;13.00;99.90
23471;DHT22;11908;50.806;4.424;2023-01-05T13:18:36;12.90;99.90
23471;DHT22;11908;50.806;4.424;2023-01-05T13:21:03;12.80;99.90
23471;DHT22;11908;50.806;4.424;2023-01-05T13:23:50;12.80;99.90
23471;DHT22;11908;50.806;4.424;2023-01-05T13:26:19;12.70;99.90
23471;DHT22;11908;50.806;4.424;2023-01-05T13:28:50;12.70;99.90
23471;DHT22;11908;50.806;4.424;2023-01-05T13:45:30;12.60;99.90
23471;DHT22;11908;50.806;4.424;2023-01-05T13:53:21;12.60;99.90
23471;DHT22;11908;50.806;4.424;2023-01-05T13:55:52;12.70;99.90
23471;DHT22;11908;50.806;4.424;2023-01-05T14:00:56;12.60;99.90
23471;DHT22;11908;50.806;4.424;2023-01-05T14:03:27;12.60;99.90
23471;DHT22;11908;50.806;4.424;2023-01-05T14:05:56;12.60;99.90
23471;DHT22;11908;50.806;4.424;2023-01-05T14:11:21;12.60;99.90
23471;DHT22;11908;50.806;4.424;2023-01-05T14:13:58;12.60;99.90
23471;DHT22;11908;50.806;4.424;2023-01-05T14:24:34;12.50;99.90
23471;DHT22;11908;50.806;4.424;2023-01-05T14:27:13;12.40;99.90
23471;DHT22;11908;50.806;4.424;2023-01-05T14:35:49;12.40;99.90
23471;DHT22;11908;50.806;4.424;2023-01-05T14:40:44;12.30;99.90
23471;DHT22;11908;50.806;4.424;2023-01-05T14:43:32;12.30;99.90
23471;DHT22;11908;50.806;4.424;2023-01-05T14:48:46;12.30;99.90
23471;DHT22;11908;50.806;4.424;2023-01-05T14:53:48;12.40;99.90
23471;DHT22;11908;50.806;4.424;2023-01-05T15:02:00;12.60;99.90
23471;DHT22;11908;50.806;4.424;2023-01-05T15:04:35;12.60;99.90
23471;DHT22;11908;50.806;4.424;2023-01-05T15:07:09;12.60;99.90
23471;DHT22;11908;50.806;4.424;2023-01-05T15:32:19;12.50;99.90
23471;DHT22;11908;50.806;4.424;2023-01-05T15:37:53;12.50;99.90
23471;DHT22;11908;50.806;4.424;2023-01-05T15:42:50;12.40;99.90
23471;DHT22;11908;50.806;4.424;2023-01-05T15:47:49;12.50;99.90
23471;DHT22;11908;50.806;4.424;2023-01-05T15:50:24;12.40;99.90
23471;DHT22;11908;50.806;4.424;2023-01-05T15:52:51;12.40;99.90
23471;DHT22;11908;50.806;4.424;2023-01-05T15:55:17;12.30;99.90
23471;DHT22;11908;50.806;4.424;2023-01-05T15:58:14;12.30;99.90
23471;DHT22;11908;50.806;4.424;2023-01-05T16:00:40;12.30;99.90
23471;DHT22;11908;50.806;4.424;2023-01-05T16:03:20;12.30;99.90
23471;DHT22;11908;50.806;4.424;2023-01-05T16:05:46;12.30;99.90
23471;DHT22;11908;50.806;4.424;2023-01-05T16:08:15;12.30;99.90
23471;DHT22;11908;50.806;4.424;2023-01-05T16:10:44;12.30;99.90
23471;DHT22;11908;50.806;4.424;2023-01-05T16:13:40;12.30;99.90
23471;DHT22;11908;50.806;4.424;2023-01-05T16:18:50;12.20;99.90
23471;DHT22;11908;50.806;4.424;2023-01-05T16:21:37;12.30;99.90
23471;DHT22;11908;50.806;4.424;2023-01-05T16:24:12;12.20;99.90
23471;DHT22;11908;50.806;4.424;2023-01-05T16:26:39;12.20;99.90
23471;DHT22;11908;50.806;4.424;2023-01-05T16:29:38;12.20;99.90
23471;DHT22;11908;50.806;4.424;2023-01-05T16:32:29;12.20;99.90
23471;DHT22;11908;50.806;4.424;2023-01-05T16:48:46;12.20;99.90
23471;DHT22;11908;50.806;4.424;2023-01-05T16:51:19;12.20;99.90
23471;DHT22;11908;50.806;4.424;2023-01-05T16:53:54;12.20;99.90
23471;DHT22;11908;50.806;4.424;2023-01-05T16:58:59;12.30;99.90
23471;DHT22;11908;50.806;4.424;2023-01-05T17:01:33;12.30;99.90
23471;DHT22;11908;50.806;4.424;2023-01-05T17:04:09;12.30;99.90
23471;DHT22;11908;50.806;4.424;2023-01-05T17:06:35;12.20;99.90
23471;DHT22;11908;50.806;4.424;2023-01-05T17:09:06;12.20;99.90
23471;DHT22;11908;50.806;4.424;2023-01-05T17:11:35;12.20;99.90
23471;DHT22;11908;50.806;4.424;2023-01-05T17:14:02;12.30;99.90
23471;DHT22;11908;50.806;4.424;2023-01-05T17:16:28;12.30;99.90
23471;DHT22;11908;50.806;4.424;2023-01-05T17:18:54;12.20;99.90
23471;DHT22;11908;50.806;4.424;2023-01-05T17:21:26;12.30;99.90
23471;DHT22;11908;50.806;4.424;2023-01-05T17:23:55;12.20;99.90
23471;DHT22;11908;50.806;4.424;2023-01-05T17:26:42;12.30;99.90
23471;DHT22;11908;50.806;4.424;2023-01-05T17:29:26;12.40;99.90
23471;DHT22;11908;50.806;4.424;2023-01-05T17:31:52;12.40;99.90
23471;DHT22;11908;50.806;4.424;2023-01-05T17:34:18;12.30;99.90
23471;DHT22;11908;50.806;4.424;2023-01-05T17:36:45;12.40;99.90
23471;DHT22;11908;50.806;4.424;2023-01-05T17:39:16;12.40;99.90
23471;DHT22;11908;50.806;4.424;2023-01-05T17:41:43;12.30;99.90
23471;DHT22;11908;50.806;4.424;2023-01-05T17:44:09;12.20;99.90
23471;DHT22;11908;50.806;4.424;2023-01-05T17:46:38;12.20;99.90
23471;DHT22;11908;50.806;4.424;2023-01-05T17:49:15;12.10;99.90
23471;DHT22;11908;50.806;4.424;2023-01-05T17:51:41;12.10;99.90
23471;DHT22;11908;50.806;4.424;2023-01-05T17:54:07;12.10;99.90
23471;DHT22;11908;50.806;4.424;2023-01-05T17:56:33;12.10;99.90
23471;DHT22;11908;50.806;4.424;2023-01-05T17:58:59;12.10;99.90
23471;DHT22;11908;50.806;4.424;2023-01-05T18:01:25;12.10;99.90
23471;DHT22;11908;50.806;4.424;2023-01-05T18:03:50;12.00;99.90
23471;DHT22;11908;50.806;4.424;2023-01-05T18:06:16;12.10;99.90
23471;DHT22;11908;50.806;4.424;2023-01-05T18:08:42;12.00;99.90
23471;DHT22;11908;50.806;4.424;2023-01-05T18:11:07;12.00;99.90
23471;DHT22;11908;50.806;4.424;2023-01-05T18:13:34;12.00;99.90
23471;DHT22;11908;50.806;4.424;2023-01-05T18:16:06;12.10;99.90
23471;DHT22;11908;50.806;4.424;2023-01-05T18:18:32;12.10;99.90
23471;DHT22;11908;50.806;4.424;2023-01-05T18:20:59;12.20;99.90
23471;DHT22;11908;50.806;4.424;2023-01-05T18:23:25;12.20;99.90
23471;DHT22;11908;50.806;4.424;2023-01-05T18:25:51;12.20;99.90
23471;DHT22;11908;50.806;4.424;2023-01-05T18:28:16;12.10;99.90
23471;DHT22;11908;50.806;4.424;2023-01-05T18:30:43;12.10;99.90
23471;DHT22;11908;50.806;4.424;2023-01-05T18:33:09;12.00;99.90
23471;DHT22;11908;50.806;4.424;2023-01-05T18:35:38;12.10;99.90
23471;DHT22;11908;50.806;4.424;2023-01-05T18:38:04;12.20;99.90
23471;DHT22;11908;50.806;4.424;2023-01-05T18:40:30;12.20;99.90
23471;DHT22;11908;50.806;4.424;2023-01-05T18:42:55;12.00;99.90
23471;DHT22;11908;50.806;4.424;2023-01-05T18:45:21;12.00;99.90
23471;DHT22;11908;50.806;4.424;2023-01-05T18:47:47;12.00;99.90
23471;DHT22;11908;50.806;4.424;2023-01-05T18:50:13;12.00;99.90
23471;DHT22;11908;50.806;4.424;2023-01-05T18:52:38;12.00;99.90
23471;DHT22;11908;50.806;4.424;2023-01-05T18:55:04;12.00;99.90
23471;DHT22;11908;50.806;4.424;2023-01-05T18:57:31;12.00;99.90
23471;DHT22;11908;50.806;4.424;2023-01-05T18:59:57;12.00;99.90
23471;DHT22;11908;50.806;4.424;2023-01-05T19:02:23;12.00;99.90
23471;DHT22;11908;50.806;4.424;2023-01-05T19:04:50;12.00;99.90
23471;DHT22;11908;50.806;4.424;2023-01-05T19:07:17;12.00;99.90
23471;DHT22;11908;50.806;4.424;2023-01-05T19:09:43;12.00;99.90
23471;DHT22;11908;50.806;4.424;2023-01-05T19:12:08;11.90;99.90
23471;DHT22;11908;50.806;4.424;2023-01-05T19:14:34;12.00;99.90